createdAt,value
2022-08-11T00:02:15.225Z,1.40
2022-08-11T00:05:06.161Z,1.50
2022-08-11T00:07:54.899Z,1.30
2022-08-11T00:10:41.330Z,1.65
2022-08-11T00:13:36.545Z,1.50
2022-08-11T00:16:24.215Z,1.40
2022-08-11T00:19:11.292Z,1.50
2022-08-11T00:22:04.612Z,1.20
2022-08-11T00:24:56.181Z,1.58
2022-08-11T00:27:47.084Z,1.30
2022-08-11T00:30:39.835Z,1.40
2022-08-11T00:33:44.481Z,1.30
2022-08-11T00:36:43.664Z,1.40
2022-08-11T00:39:32.828Z,1.70
2022-08-11T00:42:46.270Z,1.50
2022-08-11T00:45:40.539Z,1.27
2022-08-11T00:48:33.019Z,1.27
2022-08-11T00:52:03.801Z,1.33
2022-08-11T00:54:52.664Z,1.10
2022-08-11T00:58:27.360Z,1.00
2022-08-11T01:01:17.381Z,0.93
2022-08-11T01:04:28.393Z,1.00
2022-08-11T01:08:01.884Z,1.37
2022-08-11T01:11:02.727Z,1.35
2022-08-11T01:13:57.851Z,1.25
2022-08-11T01:17:11.981Z,1.35
2022-08-11T01:20:47.915Z,1.35
2022-08-11T01:23:35.613Z,1.10
2022-08-11T01:26:43.995Z,1.40
2022-08-11T01:29:52.045Z,1.30
2022-08-11T01:32:57.138Z,1.17
2022-08-11T01:36:20.861Z,1.10
2022-08-11T01:39:25.495Z,1.10
2022-08-11T01:42:45.869Z,1.23
2022-08-11T01:45:58.585Z,1.25
2022-08-11T01:48:54.284Z,1.12
2022-08-11T01:52:03.143Z,1.10
2022-08-11T01:55:13.170Z,1.02
2022-08-11T01:58:18.202Z,1.08
2022-08-11T02:01:23.855Z,1.00
2022-08-11T02:04:10.160Z,1.00
2022-08-11T02:07:10.990Z,1.33
2022-08-11T02:10:36.658Z,1.12
2022-08-11T02:13:36.552Z,0.82
2022-08-11T02:16:36.233Z,1.35
2022-08-11T02:19:47.126Z,1.12
2022-08-11T02:26:09.595Z,1.10
2022-08-11T02:29:23.218Z,1.10
2022-08-11T02:32:40.380Z,0.70
2022-08-11T02:35:36.599Z,1.00
2022-08-11T02:38:45.479Z,1.12
2022-08-11T02:42:42.266Z,1.00
2022-08-11T02:45:36.869Z,1.17
2022-08-11T02:48:55.394Z,1.25
2022-08-11T02:52:02.942Z,1.20
2022-08-11T02:54:54.514Z,1.23
2022-08-11T02:57:50.073Z,0.85
2022-08-11T03:00:47.679Z,1.10
2022-08-11T03:03:39.317Z,0.93
2022-08-11T03:06:46.121Z,1.23
2022-08-11T03:09:42.810Z,1.10
2022-08-11T03:12:53.787Z,1.02
2022-08-11T03:16:09.557Z,0.97
2022-08-11T03:19:11.646Z,1.17
2022-08-11T03:22:13.334Z,1.10
2022-08-11T03:25:07.913Z,1.02
2022-08-11T03:28:21.949Z,1.00
2022-08-11T03:31:25.444Z,0.95
2022-08-11T03:34:39.370Z,1.40
2022-08-11T03:37:51.763Z,1.12
2022-08-11T03:41:54.635Z,1.08
2022-08-11T03:44:54.324Z,1.17
2022-08-11T03:48:04.906Z,0.90
2022-08-11T03:51:03.268Z,0.95
2022-08-11T03:53:58.319Z,1.20
2022-08-11T03:57:09.786Z,1.10
2022-08-11T04:00:19.626Z,1.20
2022-08-11T04:03:53.292Z,1.10
2022-08-11T04:07:17.655Z,1.10
2022-08-11T04:10:29.324Z,0.82
2022-08-11T04:13:49.227Z,1.17
2022-08-11T04:17:00.018Z,1.10
2022-08-11T04:20:24.117Z,0.93
2022-08-11T04:24:36.771Z,1.10
2022-08-11T04:27:01.965Z,1.05
2022-08-11T04:30:06.112Z,1.10
2022-08-11T04:33:34.394Z,1.10
2022-08-11T04:36:59.185Z,1.10
2022-08-11T04:40:00.958Z,1.30
2022-08-11T04:43:21.377Z,0.98
2022-08-11T04:46:28.916Z,1.10
2022-08-11T04:49:56.226Z,1.35
2022-08-11T04:53:07.084Z,1.35
2022-08-11T04:56:33.043Z,1.17
2022-08-11T05:00:08.638Z,1.45
2022-08-11T05:03:33.730Z,1.15
2022-08-11T05:06:34.649Z,1.27
2022-08-11T05:09:29.534Z,1.20
2022-08-11T05:12:21.620Z,0.82
2022-08-11T05:15:31.766Z,1.33
2022-08-11T05:18:48.960Z,1.10
2022-08-11T05:21:55.210Z,0.90
2022-08-11T05:25:08.252Z,0.98
2022-08-11T05:28:24.205Z,0.90
2022-08-11T05:31:31.792Z,1.00
2022-08-11T05:34:40.494Z,1.20
2022-08-11T05:37:29.915Z,1.00
2022-08-11T05:40:35.097Z,0.98
2022-08-11T05:44:19.788Z,1.27
2022-08-11T05:47:08.372Z,1.25
2022-08-11T05:50:15.124Z,0.95
2022-08-11T05:53:21.886Z,1.30
2022-08-11T05:56:22.068Z,1.02
2022-08-11T05:59:14.728Z,1.05
2022-08-11T06:02:03.379Z,1.10
2022-08-11T06:04:57.196Z,1.48
2022-08-11T06:07:49.207Z,1.20
2022-08-11T06:10:38.836Z,1.00
2022-08-11T06:13:25.544Z,1.00
2022-08-11T06:16:15.310Z,0.90
2022-08-11T06:19:01.486Z,1.15
2022-08-11T06:21:48.177Z,1.05
2022-08-11T06:24:35.381Z,1.10
2022-08-11T06:27:22.616Z,1.10
2022-08-11T06:30:14.758Z,1.10
2022-08-11T06:33:02.170Z,1.23
2022-08-11T06:36:00.495Z,1.10
2022-08-11T06:39:25.411Z,1.00
2022-08-11T06:42:15.858Z,1.20
2022-08-11T06:45:26.937Z,1.30
2022-08-11T06:48:18.131Z,1.20
2022-08-11T06:51:15.094Z,1.30
2022-08-11T06:54:04.711Z,1.00
2022-08-11T06:57:29.971Z,1.10
2022-08-11T07:00:30.606Z,1.30
2022-08-11T07:03:20.501Z,1.00
2022-08-11T07:06:51.252Z,1.50
2022-08-11T07:10:21.219Z,1.20
2022-08-11T07:13:44.654Z,1.10
2022-08-11T07:16:34.868Z,1.10
2022-08-11T07:19:43.599Z,0.93
2022-08-11T07:23:09.854Z,1.00
2022-08-11T07:26:15.372Z,1.02
2022-08-11T07:29:03.046Z,1.00
2022-08-11T07:31:51.396Z,1.27
2022-08-11T07:34:41.045Z,0.90
2022-08-11T07:37:33.291Z,1.00
2022-08-11T07:40:24.232Z,1.30
2022-08-11T07:43:12.775Z,1.30
2022-08-11T07:46:18.075Z,1.27
2022-08-11T07:49:25.827Z,1.10
2022-08-11T07:52:30.674Z,1.60
2022-08-11T07:55:17.903Z,1.17
2022-08-11T07:58:25.377Z,1.20
2022-08-11T08:01:41.580Z,1.10
2022-08-11T08:04:47.550Z,1.33
2022-08-11T08:07:52.366Z,1.10
2022-08-11T08:11:00.170Z,1.23
2022-08-11T08:14:05.666Z,1.25
2022-08-11T08:17:10.740Z,1.00
2022-08-11T08:19:57.132Z,1.00
2022-08-11T08:22:47.906Z,1.25
2022-08-11T08:25:37.032Z,1.48
2022-08-11T08:28:23.793Z,1.35
2022-08-11T08:31:09.920Z,1.10
2022-08-11T08:33:57.149Z,1.30
2022-08-11T08:36:45.066Z,1.40
2022-08-11T08:39:34.518Z,1.40
2022-08-11T08:42:24.906Z,2.50
2022-08-11T08:45:16.371Z,1.23
2022-08-11T08:48:05.066Z,1.35
2022-08-11T08:51:16.283Z,1.52
2022-08-11T08:54:11.761Z,1.40
2022-08-11T08:56:58.642Z,1.50
2022-08-11T08:59:49.781Z,1.33
2022-08-11T09:02:38.208Z,1.52
2022-08-11T09:05:26.470Z,1.15
2022-08-11T09:08:13.445Z,1.20
2022-08-11T09:11:19.797Z,1.42
2022-08-11T09:14:10.359Z,1.25
2022-08-11T09:16:58.845Z,1.40
2022-08-11T09:19:49.515Z,1.40
2022-08-11T09:26:30.897Z,1.50
2022-08-11T09:29:17.575Z,1.40
2022-08-11T09:32:07.150Z,1.45
2022-08-11T09:34:54.272Z,1.30
2022-08-11T09:38:00.331Z,1.45
2022-08-11T09:40:56.125Z,1.45
2022-08-11T09:44:04.273Z,1.23
2022-08-11T09:46:51.708Z,1.50
2022-08-11T09:49:40.201Z,1.10
2022-08-11T09:52:26.632Z,1.15
2022-08-11T09:55:15.028Z,1.33
2022-08-11T09:58:42.741Z,1.00
2022-08-11T10:01:27.623Z,0.80
2022-08-11T10:04:17.300Z,1.12
2022-08-11T10:07:10.655Z,1.10
2022-08-11T10:09:59.622Z,1.20
2022-08-11T10:12:49.719Z,1.08
2022-08-11T10:15:39.696Z,1.27
2022-08-11T10:18:52.785Z,2.37
2022-08-11T10:22:06.538Z,1.20
2022-08-11T10:25:11.552Z,1.30
2022-08-11T10:28:30.371Z,1.05
2022-08-11T10:31:26.017Z,1.35
2022-08-11T10:34:16.598Z,1.20
2022-08-11T10:37:06.872Z,1.20
2022-08-11T10:40:01.816Z,1.10
2022-08-11T10:43:03.220Z,1.10
2022-08-11T10:46:08.498Z,1.40
2022-08-11T10:48:56.733Z,1.30
2022-08-11T10:52:02.254Z,1.00
2022-08-11T10:55:07.608Z,1.00
2022-08-11T10:58:12.510Z,1.05
2022-08-11T11:01:00.650Z,1.02
2022-08-11T11:03:47.621Z,0.68
2022-08-11T11:06:44.755Z,0.93
2022-08-11T11:09:33.952Z,1.02
2022-08-11T11:13:03.734Z,0.98
2022-08-11T11:16:08.801Z,1.17
2022-08-11T11:19:00.708Z,1.08
2022-08-11T11:21:51.333Z,1.10
2022-08-11T11:25:11.166Z,1.02
2022-08-11T11:28:09.877Z,1.00
2022-08-11T11:31:22.450Z,0.82
2022-08-11T11:34:52.850Z,1.10
2022-08-11T11:37:56.084Z,1.37
2022-08-11T11:41:10.464Z,1.00
2022-08-11T11:43:57.422Z,1.85
2022-08-11T11:46:48.516Z,1.17
2022-08-11T11:49:39.483Z,1.20
2022-08-11T11:52:26.210Z,1.17
2022-08-11T11:55:12.848Z,0.90
2022-08-11T11:58:19.833Z,0.85
2022-08-11T12:01:17.062Z,1.00
2022-08-11T12:04:06.725Z,0.90
2022-08-11T12:07:13.431Z,1.10
2022-08-11T12:10:00.796Z,1.00
2022-08-11T12:13:05.726Z,0.90
2022-08-11T12:16:32.360Z,1.02
2022-08-11T12:19:00.159Z,0.90
2022-08-11T12:22:05.455Z,0.90
2022-08-11T12:25:10.184Z,0.90
2022-08-11T12:27:56.888Z,1.00
2022-08-11T12:33:38.792Z,0.88
2022-08-11T12:36:25.476Z,0.80
2022-08-11T12:39:23.091Z,0.90
2022-08-11T12:42:32.989Z,1.00
2022-08-11T12:45:29.716Z,1.00
2022-08-11T12:49:00.047Z,0.90
2022-08-11T12:52:13.965Z,0.85
2022-08-11T12:55:35.247Z,1.20
2022-08-11T12:58:21.598Z,0.90
2022-08-11T13:01:26.617Z,0.82
2022-08-11T13:04:31.422Z,0.93
2022-08-11T13:07:17.756Z,0.98
2022-08-11T13:10:06.312Z,0.90
2022-08-11T13:12:56.944Z,0.73
2022-08-11T13:15:43.894Z,0.85
2022-08-11T13:18:30.503Z,0.80
2022-08-11T13:21:20.426Z,0.70
2022-08-11T13:24:07.180Z,1.07
2022-08-11T13:26:53.618Z,0.88
2022-08-11T13:29:41.991Z,0.95
2022-08-11T13:32:29.765Z,0.90
2022-08-11T13:35:16.262Z,0.80
2022-08-11T13:38:27.110Z,0.90
2022-08-11T13:41:29.151Z,0.80
2022-08-11T13:44:21.603Z,0.80
2022-08-11T13:47:12.846Z,0.80
2022-08-11T13:49:59.211Z,0.80
2022-08-11T13:52:48.994Z,0.77
2022-08-11T13:55:51.629Z,0.80
2022-08-11T13:58:40.026Z,1.00
2022-08-11T14:02:19.483Z,0.90
2022-08-11T14:05:29.756Z,1.00
2022-08-11T14:08:37.072Z,0.95
2022-08-11T14:12:21.053Z,0.90
2022-08-11T14:15:08.220Z,0.90
2022-08-11T14:18:01.708Z,1.00
2022-08-11T14:21:10.864Z,0.93
2022-08-11T14:24:01.457Z,0.80
2022-08-11T14:26:49.213Z,0.88
2022-08-11T14:29:48.558Z,0.90
2022-08-11T14:32:35.065Z,0.80
2022-08-11T14:35:39.454Z,0.95
2022-08-11T14:38:31.045Z,0.82
2022-08-11T14:41:36.729Z,1.10
2022-08-11T14:44:41.502Z,0.73
2022-08-11T14:47:30.907Z,0.80
2022-08-11T14:50:24.386Z,0.80
2022-08-11T14:53:11.462Z,1.00
2022-08-11T14:56:22.331Z,0.70
2022-08-11T14:59:08.978Z,0.82
2022-08-11T15:02:14.161Z,0.70
2022-08-11T15:05:02.221Z,0.80
2022-08-11T15:07:48.572Z,0.70
2022-08-11T15:10:35.598Z,0.90
2022-08-11T15:13:22.191Z,0.80
2022-08-11T15:16:40.829Z,0.77
2022-08-11T15:19:29.303Z,0.65
2022-08-11T15:22:42.031Z,0.80
2022-08-11T15:25:29.464Z,0.90
2022-08-11T15:28:35.475Z,0.85
2022-08-11T15:31:35.764Z,0.60
2022-08-11T15:34:44.829Z,0.80
2022-08-11T15:37:32.122Z,0.88
2022-08-11T15:40:49.057Z,0.70
2022-08-11T15:44:02.213Z,0.80
2022-08-11T15:46:52.407Z,0.80
2022-08-11T15:50:11.128Z,0.90
2022-08-11T15:53:14.275Z,0.60
2022-08-11T15:56:01.203Z,0.82
2022-08-11T15:59:35.082Z,0.88
2022-08-11T16:02:34.257Z,0.68
2022-08-11T16:05:45.370Z,1.00
2022-08-11T16:08:33.232Z,0.65
2022-08-11T16:11:21.611Z,0.68
2022-08-11T16:14:28.285Z,0.50
2022-08-11T16:17:17.455Z,0.70
2022-08-11T16:20:04.354Z,0.77
2022-08-11T16:23:01.342Z,0.70
2022-08-11T16:27:03.085Z,0.73
2022-08-11T16:28:58.106Z,0.52
2022-08-11T16:32:05.139Z,0.77
2022-08-11T16:35:20.236Z,0.55
2022-08-11T16:38:26.239Z,0.90
2022-08-11T16:41:14.820Z,0.60
2022-08-11T16:44:19.844Z,0.70
2022-08-11T16:48:02.865Z,0.90
2022-08-11T16:50:32.426Z,0.62
2022-08-11T16:53:19.126Z,0.90
2022-08-11T16:56:07.991Z,1.00
2022-08-11T16:59:15.190Z,0.80
2022-08-11T17:02:10.350Z,0.90
2022-08-11T17:05:17.478Z,0.90
2022-08-11T17:08:24.440Z,0.80
2022-08-11T17:11:31.093Z,0.70
2022-08-11T17:14:35.646Z,1.27
2022-08-11T17:17:33.217Z,0.70
2022-08-11T17:20:42.470Z,1.12
2022-08-11T17:23:44.776Z,0.98
2022-08-11T17:26:58.380Z,0.90
2022-08-11T17:29:56.880Z,0.90
2022-08-11T17:33:07.854Z,0.90
2022-08-11T17:35:54.417Z,0.90
2022-08-11T17:38:41.270Z,1.02
2022-08-11T17:41:59.930Z,2.03
2022-08-11T17:45:04.671Z,0.85
2022-08-11T17:48:10.025Z,0.90
2022-08-11T17:51:00.349Z,0.80
2022-08-11T17:54:24.779Z,0.77
2022-08-11T17:57:52.253Z,0.85
2022-08-11T18:00:38.897Z,0.80
2022-08-11T18:03:39.341Z,0.70
2022-08-11T18:06:33.750Z,0.77
2022-08-11T18:09:41.164Z,0.90
2022-08-11T18:12:45.829Z,0.68
2022-08-11T18:15:55.925Z,2.05
2022-08-11T18:19:00.949Z,1.30
2022-08-11T18:22:15.500Z,1.00
2022-08-11T18:25:29.878Z,0.77
2022-08-11T18:28:42.942Z,0.80
2022-08-11T18:31:50.128Z,0.82
2022-08-11T18:34:59.907Z,0.80
2022-08-11T18:38:06.094Z,0.70
2022-08-11T18:41:11.312Z,0.80
2022-08-11T18:44:18.867Z,0.90
2022-08-11T18:47:29.477Z,0.75
2022-08-11T18:50:39.501Z,1.07
2022-08-11T18:53:46.487Z,0.90
2022-08-11T18:56:52.647Z,0.93
2022-08-11T18:59:59.277Z,0.82
2022-08-11T19:03:04.970Z,0.90
2022-08-11T19:06:38.529Z,0.88
2022-08-11T19:09:37.272Z,0.70
2022-08-11T19:12:42.905Z,0.73
2022-08-11T19:15:50.036Z,0.80
2022-08-11T19:18:55.584Z,0.70
2022-08-11T19:22:00.667Z,0.70
2022-08-11T19:25:08.114Z,0.75
2022-08-11T19:28:12.914Z,1.00
2022-08-11T19:31:18.367Z,0.80
2022-08-11T19:34:25.255Z,0.77
2022-08-11T19:37:30.427Z,0.60
2022-08-11T19:40:35.180Z,0.80
2022-08-11T19:43:42.697Z,0.90
2022-08-11T19:46:48.685Z,0.98
2022-08-11T19:49:54.122Z,0.80
2022-08-11T19:52:59.138Z,0.70
2022-08-11T19:56:06.136Z,0.80
2022-08-11T19:59:11.902Z,0.77
2022-08-11T20:02:17.163Z,0.95
2022-08-11T20:05:23.363Z,0.88
2022-08-11T20:08:28.402Z,0.70
2022-08-11T20:11:34.107Z,0.85
2022-08-11T20:14:40.050Z,0.88
2022-08-11T20:17:48.184Z,0.85
2022-08-11T20:20:53.586Z,0.73
2022-08-11T20:24:00.855Z,0.93
2022-08-11T20:27:18.758Z,0.90
2022-08-11T20:30:30.081Z,1.20
2022-08-11T20:33:35.626Z,0.73
2022-08-11T20:36:41.139Z,0.80
2022-08-11T20:39:47.429Z,0.80
2022-08-11T20:42:53.877Z,0.75
2022-08-11T20:45:58.873Z,0.80
2022-08-11T20:49:04.941Z,0.62
2022-08-11T20:52:09.944Z,0.80
2022-08-11T20:55:19.099Z,0.80
2022-08-11T20:58:48.042Z,0.85
2022-08-11T21:01:57.950Z,0.93
2022-08-11T21:05:03.048Z,0.90
2022-08-11T21:08:13.149Z,0.80
2022-08-11T21:11:27.718Z,0.73
2022-08-11T21:14:33.012Z,0.82
2022-08-11T21:18:00.094Z,0.60
2022-08-11T21:21:06.897Z,0.70
2022-08-11T21:24:12.553Z,0.68
2022-08-11T21:27:24.981Z,0.80
2022-08-11T21:30:29.956Z,1.00
2022-08-11T21:33:35.578Z,0.80
2022-08-11T21:36:40.986Z,0.82
2022-08-11T21:39:47.239Z,0.68
2022-08-11T21:42:55.572Z,0.55
2022-08-11T21:46:02.181Z,0.80
2022-08-11T21:49:08.200Z,0.68
2022-08-11T21:52:13.439Z,0.80
2022-08-11T21:55:18.390Z,0.70
2022-08-11T21:58:24.383Z,0.65
2022-08-11T22:01:31.065Z,0.60
2022-08-11T22:04:40.330Z,0.70
2022-08-11T22:07:45.837Z,0.90
2022-08-11T22:10:50.775Z,0.50
2022-08-11T22:14:01.283Z,1.02
2022-08-11T22:17:13.200Z,0.50
2022-08-11T22:20:18.667Z,0.60
2022-08-11T22:23:23.764Z,0.50
2022-08-11T22:26:35.157Z,0.60
2022-08-11T22:29:50.450Z,0.57
2022-08-11T22:32:57.761Z,0.60
2022-08-11T22:36:04.521Z,0.65
2022-08-11T22:39:09.550Z,0.70
2022-08-11T22:42:14.498Z,0.60
2022-08-11T22:45:19.707Z,0.65
2022-08-11T22:48:26.501Z,0.55
2022-08-11T22:51:32.947Z,0.70
2022-08-11T22:54:39.536Z,0.55
2022-08-11T22:57:46.585Z,0.62
2022-08-11T23:01:07.246Z,0.50
2022-08-11T23:04:12.552Z,0.62
2022-08-11T23:07:49.342Z,0.60
2022-08-11T23:10:45.527Z,0.60
2022-08-11T23:13:51.482Z,0.60
2022-08-11T23:16:56.088Z,0.68
2022-08-11T23:20:17.538Z,0.47
2022-08-11T23:23:28.528Z,0.60
2022-08-11T23:26:36.663Z,0.70
2022-08-11T23:29:41.634Z,0.73
2022-08-11T23:32:47.925Z,0.57
2022-08-11T23:35:55.510Z,0.70
2022-08-11T23:39:02.911Z,0.60
2022-08-11T23:42:07.775Z,0.60
2022-08-11T23:45:12.613Z,0.73
2022-08-11T23:48:18.087Z,0.60
2022-08-11T23:51:24.562Z,0.77
2022-08-11T23:54:45.688Z,0.70
2022-08-11T23:57:51.775Z,0.62
